sensor_id;sensor_type;location;lat;lon;timestamp;pressure;altitude;pressure_sealevel;temperature;humidity
74680;BME280;63211;48.548;2.704;2022-10-03T00:01:54;101847.88;;;19.00;62.52
74680;BME280;63211;48.548;2.704;2022-10-03T00:04:45;101853.34;;;19.00;62.39
74680;BME280;63211;48.548;2.704;2022-10-03T00:07:29;101860.47;;;19.01;62.14
74680;BME280;63211;48.548;2.704;2022-10-03T00:10:11;101863.84;;;19.03;62.06
74680;BME280;63211;48.548;2.704;2022-10-03T00:12:58;101845.38;;;19.05;62.37
74680;BME280;63211;48.548;2.704;2022-10-03T00:15:36;101850.84;;;19.05;62.01
74680;BME280;63211;48.548;2.704;2022-10-03T00:18:15;101845.19;;;19.07;62.01
74680;BME280;63211;48.548;2.704;2022-10-03T00:21:05;101845.19;;;19.07;62.20
74680;BME280;63211;48.548;2.704;2022-10-03T00:23:39;101839.72;;;19.07;62.53
74680;BME280;63211;48.548;2.704;2022-10-03T00:26:16;101846.22;;;19.06;62.13
74680;BME280;63211;48.548;2.704;2022-10-03T00:29:06;101847.47;;;19.03;62.40
74680;BME280;63211;48.548;2.704;2022-10-03T00:31:48;101853.13;;;19.02;62.32
74680;BME280;63211;48.548;2.704;2022-10-03T00:34:26;101855.66;;;19.03;62.45
74680;BME280;63211;48.548;2.704;2022-10-03T00:37:11;101861.31;;;19.02;62.42
74680;BME280;63211;48.548;2.704;2022-10-03T00:39:49;101859.63;;;19.01;62.52
74680;BME280;63211;48.548;2.704;2022-10-03T00:42:47;101856.91;;;19.01;62.48
74680;BME280;63211;48.548;2.704;2022-10-03T00:48:50;101862.59;;;19.06;62.03
74680;BME280;63211;48.548;2.704;2022-10-03T00:51:43;101862.41;;;19.07;62.38
74680;BME280;63211;48.548;2.704;2022-10-03T00:54:34;101855.25;;;19.06;62.75
74680;BME280;63211;48.548;2.704;2022-10-03T01:00:13;101864.28;;;19.07;62.49
74680;BME280;63211;48.548;2.704;2022-10-03T01:02:48;101857.16;;;19.06;62.49
74680;BME280;63211;48.548;2.704;2022-10-03T01:05:30;101851.88;;;19.04;62.63
74680;BME280;63211;48.548;2.704;2022-10-03T01:08:23;101866.38;;;19.05;62.45
74680;BME280;63211;48.548;2.704;2022-10-03T01:10:57;101852.94;;;19.03;62.70
74680;BME280;63211;48.548;2.704;2022-10-03T01:13:35;101858.38;;;19.03;62.77
74680;BME280;63211;48.548;2.704;2022-10-03T01:16:14;101861.13;;;19.03;62.71
74680;BME280;63211;48.548;2.704;2022-10-03T01:18:53;101829.56;;;18.94;62.85
74680;BME280;63211;48.548;2.704;2022-10-03T01:21:33;101841.81;;;19.05;62.77
74680;BME280;63211;48.548;2.704;2022-10-03T01:24:33;101847.91;;;19.07;62.49
74680;BME280;63211;48.548;2.704;2022-10-03T01:27:12;101835.97;;;19.08;62.09
74680;BME280;63211;48.548;2.704;2022-10-03T01:29:44;101833.63;;;19.05;62.13
74680;BME280;63211;48.548;2.704;2022-10-03T01:32:37;101838.69;;;19.08;62.62
74680;BME280;63211;48.548;2.704;2022-10-03T01:35:14;101833.22;;;19.08;62.37
74680;BME280;63211;48.548;2.704;2022-10-03T01:37:50;101835.09;;;19.07;62.57
74680;BME280;63211;48.548;2.704;2022-10-03T01:40:23;101844.16;;;19.08;62.67
74680;BME280;63211;48.548;2.704;2022-10-03T01:42:59;101830.69;;;19.06;62.59
74680;BME280;63211;48.548;2.704;2022-10-03T01:45:34;101832.38;;;19.07;62.47
74680;BME280;63211;48.548;2.704;2022-10-03T01:48:06;101827.13;;;19.06;62.65
74680;BME280;63211;48.548;2.704;2022-10-03T01:50:37;101825.22;;;19.06;62.68
74680;BME280;63211;48.548;2.704;2022-10-03T01:53:14;101822.47;;;19.00;62.52
74680;BME280;63211;48.548;2.704;2022-10-03T01:55:53;101838.25;;;19.04;62.43
74680;BME280;63211;48.548;2.704;2022-10-03T01:58:22;101839.94;;;19.05;62.49
74680;BME280;63211;48.548;2.704;2022-10-03T02:00:58;101840.78;;;19.06;62.22
74680;BME280;63211;48.548;2.704;2022-10-03T02:03:29;101836.78;;;19.08;62.41
74680;BME280;63211;48.548;2.704;2022-10-03T02:06:02;101840.38;;;19.09;62.20
74680;BME280;63211;48.548;2.704;2022-10-03T02:08:44;101842.25;;;19.08;62.50
74680;BME280;63211;48.548;2.704;2022-10-03T02:11:25;101846.66;;;19.09;62.14
74680;BME280;63211;48.548;2.704;2022-10-03T02:13:58;101842.25;;;19.08;62.65
74680;BME280;63211;48.548;2.704;2022-10-03T02:16:34;101842.25;;;19.08;62.52
74680;BME280;63211;48.548;2.704;2022-10-03T02:19:11;101840.78;;;19.06;62.45
74680;BME280;63211;48.548;2.704;2022-10-03T02:21:48;101840.78;;;19.06;62.46
74680;BME280;63211;48.548;2.704;2022-10-03T02:24:37;101832.78;;;19.04;62.25
74680;BME280;63211;48.548;2.704;2022-10-03T02:27:43;101835.50;;;19.04;62.65
74680;BME280;63211;48.548;2.704;2022-10-03T02:30:19;101839.28;;;19.03;62.70
74680;BME280;63211;48.548;2.704;2022-10-03T02:33:16;101829.00;;;19.05;62.52
74680;BME280;63211;48.548;2.704;2022-10-03T02:36:12;101832.59;;;19.06;62.37
74680;BME280;63211;48.548;2.704;2022-10-03T02:39:08;101832.38;;;19.07;62.57
74680;BME280;63211;48.548;2.704;2022-10-03T02:42:15;101829.66;;;19.07;62.12
74680;BME280;63211;48.548;2.704;2022-10-03T02:45:00;101832.38;;;19.07;62.48
74680;BME280;63211;48.548;2.704;2022-10-03T02:48:01;101832.19;;;19.09;62.47
74680;BME280;63211;48.548;2.704;2022-10-03T02:51:05;101827.97;;;19.06;62.29
74680;BME280;63211;48.548;2.704;2022-10-03T03:00:00;101822.72;;;19.05;62.16
74680;BME280;63211;48.548;2.704;2022-10-03T03:08:59;101829.59;;;19.01;62.04
74680;BME280;63211;48.548;2.704;2022-10-03T03:11:42;101838.03;;;19.06;62.12
74680;BME280;63211;48.548;2.704;2022-10-03T03:17:31;101839.72;;;19.07;62.05
74680;BME280;63211;48.548;2.704;2022-10-03T03:20:16;101839.72;;;19.07;62.08
74680;BME280;63211;48.548;2.704;2022-10-03T03:23:04;101836.16;;;19.06;61.95
74680;BME280;63211;48.548;2.704;2022-10-03T03:25:53;101846.22;;;19.06;62.11
74680;BME280;63211;48.548;2.704;2022-10-03T03:28:32;101847.28;;;19.05;62.28
74680;BME280;63211;48.548;2.704;2022-10-03T03:31:08;101857.16;;;19.06;62.36
74680;BME280;63211;48.548;2.704;2022-10-03T03:33:47;101853.97;;;19.02;62.44
74680;BME280;63211;48.548;2.704;2022-10-03T03:36:24;101853.97;;;19.02;62.25
74680;BME280;63211;48.548;2.704;2022-10-03T03:39:05;101843.91;;;19.03;62.39
74680;BME280;63211;48.548;2.704;2022-10-03T03:41:47;101849.56;;;19.01;62.36
74680;BME280;63211;48.548;2.704;2022-10-03T03:44:36;101853.13;;;19.02;61.99
74680;BME280;63211;48.548;2.704;2022-10-03T03:47:21;101857.53;;;19.03;62.03
74680;BME280;63211;48.548;2.704;2022-10-03T03:50:17;101856.69;;;19.02;61.93
74680;BME280;63211;48.548;2.704;2022-10-03T03:52:57;101855.47;;;19.05;62.02
74680;BME280;63211;48.548;2.704;2022-10-03T03:55:48;101851.88;;;19.04;62.25
74680;BME280;63211;48.548;2.704;2022-10-03T03:58:30;101846.63;;;19.03;61.81
74680;BME280;63211;48.548;2.704;2022-10-03T04:01:08;101854.81;;;19.03;62.30
74680;BME280;63211;48.548;2.704;2022-10-03T04:03:48;101848.50;;;19.02;62.29
74680;BME280;63211;48.548;2.704;2022-10-03T04:06:28;101839.69;;;19.00;62.27
74680;BME280;63211;48.548;2.704;2022-10-03T04:09:13;101846.19;;;18.99;62.37
74680;BME280;63211;48.548;2.704;2022-10-03T04:11:54;101842.63;;;18.99;62.01
74680;BME280;63211;48.548;2.704;2022-10-03T04:17:43;101844.69;;;18.97;61.95
74680;BME280;63211;48.548;2.704;2022-10-03T04:20:52;101846.59;;;18.96;62.03
74680;BME280;63211;48.548;2.704;2022-10-03T04:23:42;101835.66;;;18.96;61.89
74680;BME280;63211;48.548;2.704;2022-10-03T04:26:21;101843.44;;;18.99;61.74
74680;BME280;63211;48.548;2.704;2022-10-03T04:29:07;101847.03;;;19.00;61.79
74680;BME280;63211;48.548;2.704;2022-10-03T04:31:51;101854.16;;;19.01;61.64
74680;BME280;63211;48.548;2.704;2022-10-03T04:34:31;101845.34;;;18.99;61.85
74680;BME280;63211;48.548;2.704;2022-10-03T04:37:21;101847.22;;;18.98;61.71
74680;BME280;63211;48.548;2.704;2022-10-03T04:40:07;101840.94;;;18.98;61.45
74680;BME280;63211;48.548;2.704;2022-10-03T04:42:45;101843.84;;;18.96;61.64
74680;BME280;63211;48.548;2.704;2022-10-03T04:45:30;101853.94;;;18.96;61.77
74680;BME280;63211;48.548;2.704;2022-10-03T04:48:06;101861.28;;;18.95;61.83
74680;BME280;63211;48.548;2.704;2022-10-03T04:50:39;101858.75;;;18.94;61.87
74680;BME280;63211;48.548;2.704;2022-10-03T04:53:20;101850.75;;;18.92;61.64
74680;BME280;63211;48.548;2.704;2022-10-03T04:55:53;101856.84;;;18.94;61.55
74680;BME280;63211;48.548;2.704;2022-10-03T04:58:31;101858.34;;;18.97;61.84
74680;BME280;63211;48.548;2.704;2022-10-03T05:01:12;101858.53;;;18.95;62.07
74680;BME280;63211;48.548;2.704;2022-10-03T05:03:46;101856.22;;;18.92;61.79
74680;BME280;63211;48.548;2.704;2022-10-03T05:06:34;101859.38;;;18.89;61.93
74680;BME280;63211;48.548;2.704;2022-10-03T05:09:19;101849.69;;;18.86;61.99
74680;BME280;63211;48.548;2.704;2022-10-03T05:11:55;101858.91;;;18.85;61.79
74680;BME280;63211;48.548;2.704;2022-10-03T05:14:39;101855.53;;;18.83;62.31
74680;BME280;63211;48.548;2.704;2022-10-03T05:17:19;101862.88;;;18.83;62.10
74680;BME280;63211;48.548;2.704;2022-10-03T05:20:08;101866.00;;;18.80;62.21
74680;BME280;63211;48.548;2.704;2022-10-03T05:22:42;101866.84;;;18.80;62.31
74680;BME280;63211;48.548;2.704;2022-10-03T05:25:20;101867.91;;;18.79;62.25
74680;BME280;63211;48.548;2.704;2022-10-03T05:27:52;101864.53;;;18.77;62.45
74680;BME280;63211;48.548;2.704;2022-10-03T05:30:32;101869.34;;;18.75;62.19
74680;BME280;63211;48.548;2.704;2022-10-03T05:33:05;101871.03;;;18.76;62.08
74680;BME280;63211;48.548;2.704;2022-10-03T05:35:47;101868.50;;;18.75;62.53
74680;BME280;63211;48.548;2.704;2022-10-03T05:38:29;101880.25;;;18.75;62.50
74680;BME280;63211;48.548;2.704;2022-10-03T05:41:02;101875.84;;;18.74;62.23
74680;BME280;63211;48.548;2.704;2022-10-03T05:43:46;101876.09;;;18.79;62.49
74680;BME280;63211;48.548;2.704;2022-10-03T05:46:26;101876.94;;;18.80;62.29
74680;BME280;63211;48.548;2.704;2022-10-03T05:49:06;101881.75;;;18.78;62.22
74680;BME280;63211;48.548;2.704;2022-10-03T05:51:55;101890.78;;;18.78;62.57
74680;BME280;63211;48.548;2.704;2022-10-03T05:54:56;101884.53;;;18.84;62.33
74680;BME280;63211;48.548;2.704;2022-10-03T05:57:47;101885.75;;;18.82;62.48
74680;BME280;63211;48.548;2.704;2022-10-03T06:00:19;101893.69;;;18.77;62.23
74680;BME280;63211;48.548;2.704;2022-10-03T06:03:13;101892.84;;;18.76;62.80
74680;BME280;63211;48.548;2.704;2022-10-03T06:05:59;101892.84;;;18.76;62.96
74680;BME280;63211;48.548;2.704;2022-10-03T06:08:55;101898.50;;;18.75;62.58
74680;BME280;63211;48.548;2.704;2022-10-03T06:11:55;101896.81;;;18.74;62.74
74680;BME280;63211;48.548;2.704;2022-10-03T06:14:29;101891.56;;;18.72;62.56
74680;BME280;63211;48.548;2.704;2022-10-03T06:17:13;101896.41;;;18.70;62.39
74680;BME280;63211;48.548;2.704;2022-10-03T06:19:48;101890.28;;;18.68;62.17
74680;BME280;63211;48.548;2.704;2022-10-03T06:26:00;101875.34;;;18.64;62.26
74680;BME280;63211;48.548;2.704;2022-10-03T06:28:45;101877.63;;;18.61;62.50
74680;BME280;63211;48.548;2.704;2022-10-03T06:34:33;101870.09;;;18.63;62.77
74680;BME280;63211;48.548;2.704;2022-10-03T06:37:32;101861.06;;;18.62;62.31
74680;BME280;63211;48.548;2.704;2022-10-03T06:40:31;101861.28;;;18.61;62.17
74680;BME280;63211;48.548;2.704;2022-10-03T06:43:41;101860.59;;;18.59;61.68
74680;BME280;63211;48.548;2.704;2022-10-03T06:46:33;101859.75;;;18.58;62.32
74680;BME280;63211;48.548;2.704;2022-10-03T06:49:31;101864.19;;;18.59;61.98
74680;BME280;63211;48.548;2.704;2022-10-03T06:52:19;101875.47;;;18.56;62.11
74680;BME280;63211;48.548;2.704;2022-10-03T06:55:22;101873.38;;;18.58;61.73
74680;BME280;63211;48.548;2.704;2022-10-03T07:01:58;101876.06;;;18.51;62.09
74680;BME280;63211;48.548;2.704;2022-10-03T07:04:53;101877.75;;;18.52;62.01
74680;BME280;63211;48.548;2.704;2022-10-03T07:07:55;101887.16;;;18.50;62.00
74680;BME280;63211;48.548;2.704;2022-10-03T07:10:37;101888.00;;;18.50;62.00
74680;BME280;63211;48.548;2.704;2022-10-03T07:16:27;101888.41;;;18.47;61.92
74680;BME280;63211;48.548;2.704;2022-10-03T07:19:27;101891.16;;;18.47;62.08
74680;BME280;63211;48.548;2.704;2022-10-03T07:22:33;101899.72;;;18.44;62.07
74680;BME280;63211;48.548;2.704;2022-10-03T07:31:07;101897.00;;;18.44;62.12
74680;BME280;63211;48.548;2.704;2022-10-03T07:36:45;101910.16;;;18.41;62.23
74680;BME280;63211;48.548;2.704;2022-10-03T07:40:05;101908.09;;;18.43;62.40
74680;BME280;63211;48.548;2.704;2022-10-03T07:43:00;101914.78;;;18.40;62.32
74680;BME280;63211;48.548;2.704;2022-10-03T07:45:36;101914.59;;;18.42;62.01
74680;BME280;63211;48.548;2.704;2022-10-03T07:48:52;101911.00;;;18.41;62.14
74680;BME280;63211;48.548;2.704;2022-10-03T07:51:27;101912.50;;;18.44;62.04
74680;BME280;63211;48.548;2.704;2022-10-03T07:57:01;101916.66;;;18.40;62.03
74680;BME280;63211;48.548;2.704;2022-10-03T08:00:00;101913.94;;;18.40;62.15
74680;BME280;63211;48.548;2.704;2022-10-03T08:05:53;101926.47;;;18.34;61.79
74680;BME280;63211;48.548;2.704;2022-10-03T08:09:10;101931.72;;;18.36;62.06
74680;BME280;63211;48.548;2.704;2022-10-03T08:15:02;101931.91;;;18.34;61.81
74680;BME280;63211;48.548;2.704;2022-10-03T08:17:56;101935.69;;;18.33;62.20
74680;BME280;63211;48.548;2.704;2022-10-03T08:20:41;101934.00;;;18.32;61.88
74680;BME280;63211;48.548;2.704;2022-10-03T08:23:29;101942.38;;;18.31;61.82
74680;BME280;63211;48.548;2.704;2022-10-03T08:26:15;101935.88;;;18.32;61.80
74680;BME280;63211;48.548;2.704;2022-10-03T08:29:15;101941.13;;;18.33;61.88
74680;BME280;63211;48.548;2.704;2022-10-03T08:32:15;101941.97;;;18.34;61.94
74680;BME280;63211;48.548;2.704;2022-10-03T08:50:15;101932.09;;;18.33;61.78
74680;BME280;63211;48.548;2.704;2022-10-03T08:52:58;101935.03;;;18.31;61.83
74680;BME280;63211;48.548;2.704;2022-10-03T08:55:41;101932.31;;;18.31;61.56
74680;BME280;63211;48.548;2.704;2022-10-03T08:59:00;101927.88;;;18.30;61.49
74680;BME280;63211;48.548;2.704;2022-10-03T09:01:53;101930.41;;;18.32;61.69
74680;BME280;63211;48.548;2.704;2022-10-03T09:04:34;101924.13;;;18.31;61.61
74680;BME280;63211;48.548;2.704;2022-10-03T09:07:28;101921.19;;;18.33;61.92
74680;BME280;63211;48.548;2.704;2022-10-03T09:10:21;101916.00;;;18.38;61.57
74680;BME280;63211;48.548;2.704;2022-10-03T09:13:29;101910.38;;;18.39;61.54
74680;BME280;63211;48.548;2.704;2022-10-03T09:16:38;101913.56;;;18.43;61.43
74680;BME280;63211;48.548;2.704;2022-10-03T09:22:28;101908.56;;;18.46;61.52
74680;BME280;63211;48.548;2.704;2022-10-03T09:25:22;101899.34;;;18.47;61.69
74680;BME280;63211;48.548;2.704;2022-10-03T09:28:22;101903.94;;;18.47;63.25
74680;BME280;63211;48.548;2.704;2022-10-03T09:30:57;101897.84;;;18.45;64.84
74680;BME280;63211;48.548;2.704;2022-10-03T09:33:59;101906.41;;;18.42;66.78
74680;BME280;63211;48.548;2.704;2022-10-03T09:40:05;101915.56;;;18.34;65.56
74680;BME280;63211;48.548;2.704;2022-10-03T09:49:29;101920.56;;;18.31;68.11
74680;BME280;63211;48.548;2.704;2022-10-03T09:52:13;101946.66;;;18.40;68.77
74680;BME280;63211;48.548;2.704;2022-10-03T09:55:10;101950.81;;;18.36;68.57
74680;BME280;63211;48.548;2.704;2022-10-03T09:57:55;101948.94;;;18.36;68.39
74680;BME280;63211;48.548;2.704;2022-10-03T10:00:33;101942.44;;;18.37;68.70
74680;BME280;63211;48.548;2.704;2022-10-03T10:06:36;101941.97;;;18.34;69.28
74680;BME280;63211;48.548;2.704;2022-10-03T10:09:25;101943.66;;;18.35;69.26
74680;BME280;63211;48.548;2.704;2022-10-03T10:12:13;101934.84;;;18.33;69.61
74680;BME280;63211;48.548;2.704;2022-10-03T10:15:01;101939.25;;;18.34;69.55
74680;BME280;63211;48.548;2.704;2022-10-03T10:18:15;101938.59;;;18.32;69.98
74680;BME280;63211;48.548;2.704;2022-10-03T10:24:26;101940.09;;;18.34;70.05
74680;BME280;63211;48.548;2.704;2022-10-03T10:27:23;101939.25;;;18.34;69.94
74680;BME280;63211;48.548;2.704;2022-10-03T10:30:07;101939.63;;;18.31;70.21
74680;BME280;63211;48.548;2.704;2022-10-03T10:39:40;101930.00;;;18.28;70.47
74680;BME280;63211;48.548;2.704;2022-10-03T10:42:39;101936.06;;;18.30;70.50
74680;BME280;63211;48.548;2.704;2022-10-03T10:45:37;101926.41;;;18.28;70.43
74680;BME280;63211;48.548;2.704;2022-10-03T10:54:48;101932.06;;;18.26;70.71
74680;BME280;63211;48.548;2.704;2022-10-03T10:57:28;101931.41;;;18.24;70.63
74680;BME280;63211;48.548;2.704;2022-10-03T11:00:17;101928.88;;;18.23;71.01
74680;BME280;63211;48.548;2.704;2022-10-03T11:09:26;101925.78;;;18.26;70.80
74680;BME280;63211;48.548;2.704;2022-10-03T11:15:53;101923.25;;;18.24;71.15
74680;BME280;63211;48.548;2.704;2022-10-03T11:19:10;101917.59;;;18.26;70.84
74680;BME280;63211;48.548;2.704;2022-10-03T11:34:44;101919.50;;;18.32;70.40
74680;BME280;63211;48.548;2.704;2022-10-03T11:37:28;101917.63;;;18.32;70.72
74680;BME280;63211;48.548;2.704;2022-10-03T11:40:03;101925.81;;;18.32;70.44
74680;BME280;63211;48.548;2.704;2022-10-03T11:42:48;101920.81;;;18.36;70.19
74680;BME280;63211;48.548;2.704;2022-10-03T11:45:24;101921.09;;;18.41;70.74
74680;BME280;63211;48.548;2.704;2022-10-03T11:47:58;101922.19;;;18.46;69.81
74680;BME280;63211;48.548;2.704;2022-10-03T11:50:37;101922.59;;;18.50;69.57
74680;BME280;63211;48.548;2.704;2022-10-03T11:53:14;101928.06;;;18.50;70.07
74680;BME280;63211;48.548;2.704;2022-10-03T11:55:46;101922.38;;;18.45;69.38
74680;BME280;63211;48.548;2.704;2022-10-03T11:58:28;101918.63;;;18.46;69.23
74680;BME280;63211;48.548;2.704;2022-10-03T12:01:10;101922.56;;;18.43;70.19
74680;BME280;63211;48.548;2.704;2022-10-03T12:03:50;101909.78;;;18.44;69.58
74680;BME280;63211;48.548;2.704;2022-10-03T12:06:40;101906.91;;;18.52;69.64
74680;BME280;63211;48.548;2.704;2022-10-03T12:09:35;101904.22;;;18.59;68.43
74680;BME280;63211;48.548;2.704;2022-10-03T12:12:12;101902.84;;;18.63;68.84
74680;BME280;63211;48.548;2.704;2022-10-03T12:14:46;101900.09;;;18.63;68.40
74680;BME280;63211;48.548;2.704;2022-10-03T12:17:15;101898.66;;;18.67;69.09
74680;BME280;63211;48.548;2.704;2022-10-03T12:19:56;101894.91;;;18.68;68.46
74680;BME280;63211;48.548;2.704;2022-10-03T12:22:37;101894.91;;;18.68;68.43
74680;BME280;63211;48.548;2.704;2022-10-03T12:25:17;101891.53;;;18.66;69.14
74680;BME280;63211;48.548;2.704;2022-10-03T12:27:50;101892.81;;;18.70;68.52
74680;BME280;63211;48.548;2.704;2022-10-03T12:30:19;101885.72;;;18.75;68.94
74680;BME280;63211;48.548;2.704;2022-10-03T12:32:59;101892.19;;;18.74;68.37
74680;BME280;63211;48.548;2.704;2022-10-03T12:35:39;101889.47;;;18.74;68.94
74680;BME280;63211;48.548;2.704;2022-10-03T12:38:34;101884.88;;;18.75;68.33
74680;BME280;63211;48.548;2.704;2022-10-03T12:41:20;101887.84;;;18.80;68.22
74680;BME280;63211;48.548;2.704;2022-10-03T12:43:56;101896.22;;;18.78;67.95
74680;BME280;63211;48.548;2.704;2022-10-03T12:46:34;101885.50;;;18.77;68.92
74680;BME280;63211;48.548;2.704;2022-10-03T12:49:06;101882.97;;;18.75;68.18
74680;BME280;63211;48.548;2.704;2022-10-03T12:51:50;101881.28;;;18.74;68.71
74680;BME280;63211;48.548;2.704;2022-10-03T12:54:26;101873.09;;;18.74;68.60
74680;BME280;63211;48.548;2.704;2022-10-03T12:57:10;101866.59;;;18.75;68.55
74680;BME280;63211;48.548;2.704;2022-10-03T12:59:49;101862.84;;;18.76;68.25
74680;BME280;63211;48.548;2.704;2022-10-03T13:02:24;101860.56;;;18.80;67.91
74680;BME280;63211;48.548;2.704;2022-10-03T13:05:17;101853.16;;;18.74;68.79
74680;BME280;63211;48.548;2.704;2022-10-03T13:07:52;101855.53;;;18.83;69.03
74680;BME280;63211;48.548;2.704;2022-10-03T13:10:27;101858.09;;;18.85;68.15
74680;BME280;63211;48.548;2.704;2022-10-03T13:13:05;101847.81;;;18.87;68.40
74680;BME280;63211;48.548;2.704;2022-10-03T13:16:10;101850.97;;;18.91;68.33
74680;BME280;63211;48.548;2.704;2022-10-03T13:18:43;101855.59;;;18.90;68.34
74680;BME280;63211;48.548;2.704;2022-10-03T13:21:17;101846.13;;;18.93;68.41
74680;BME280;63211;48.548;2.704;2022-10-03T13:23:50;101848.47;;;18.96;68.35
74680;BME280;63211;48.548;2.704;2022-10-03T13:26:22;101843.44;;;18.99;68.37
74680;BME280;63211;48.548;2.704;2022-10-03T13:29:04;101840.94;;;18.98;67.64
74680;BME280;63211;48.548;2.704;2022-10-03T13:31:47;101835.06;;;19.01;68.33
74680;BME280;63211;48.548;2.704;2022-10-03T13:34:22;101831.28;;;19.02;68.38
74680;BME280;63211;48.548;2.704;2022-10-03T13:36:55;101838.88;;;19.06;68.24
74680;BME280;63211;48.548;2.704;2022-10-03T13:39:26;101836.34;;;19.05;68.89
74680;BME280;63211;48.548;2.704;2022-10-03T13:42:07;101827.56;;;19.09;68.16
74680;BME280;63211;48.548;2.704;2022-10-03T13:44:37;101836.41;;;19.11;67.33
74680;BME280;63211;48.548;2.704;2022-10-03T13:47:24;101840.78;;;19.12;67.08
74680;BME280;63211;48.548;2.704;2022-10-03T13:49:54;101832.19;;;19.15;67.69
74680;BME280;63211;48.548;2.704;2022-10-03T13:52:25;101831.34;;;19.15;67.51
74680;BME280;63211;48.548;2.704;2022-10-03T13:55:12;101825.03;;;19.14;67.43
74680;BME280;63211;48.548;2.704;2022-10-03T13:57:44;101824.41;;;19.12;67.53
74680;BME280;63211;48.548;2.704;2022-10-03T14:00:14;101821.66;;;19.06;67.36
74680;BME280;63211;48.548;2.704;2022-10-03T14:02:51;101816.59;;;19.03;67.97
74680;BME280;63211;48.548;2.704;2022-10-03T14:05:57;101800.66;;;19.06;67.30
74680;BME280;63211;48.548;2.704;2022-10-03T14:09:14;101801.28;;;19.02;67.39
74680;BME280;63211;48.548;2.704;2022-10-03T14:11:51;101790.16;;;19.03;67.50
74680;BME280;63211;48.548;2.704;2022-10-03T14:14:39;101791.44;;;19.14;66.83
74680;BME280;63211;48.548;2.704;2022-10-03T14:17:11;101791.47;;;19.20;66.71
74680;BME280;63211;48.548;2.704;2022-10-03T14:19:50;101788.34;;;19.23;66.24
74680;BME280;63211;48.548;2.704;2022-10-03T14:22:43;101783.53;;;19.26;65.69
74680;BME280;63211;48.548;2.704;2022-10-03T14:25:25;101778.69;;;19.28;65.91
74680;BME280;63211;48.548;2.704;2022-10-03T14:27:57;101774.91;;;19.29;65.54
74680;BME280;63211;48.548;2.704;2022-10-03T14:30:32;101772.63;;;19.32;65.20
74680;BME280;63211;48.548;2.704;2022-10-03T14:33:11;101772.19;;;19.29;66.21
74680;BME280;63211;48.548;2.704;2022-10-03T14:35:52;101771.16;;;19.30;66.26
74680;BME280;63211;48.548;2.704;2022-10-03T14:38:38;101765.25;;;19.26;66.63
74680;BME280;63211;48.548;2.704;2022-10-03T14:41:36;101760.84;;;19.25;66.79
74680;BME280;63211;48.548;2.704;2022-10-03T14:44:09;101764.41;;;19.26;66.43
74680;BME280;63211;48.548;2.704;2022-10-03T14:46:41;101751.41;;;19.28;66.00
74680;BME280;63211;48.548;2.704;2022-10-03T14:49:16;101748.66;;;19.28;65.47
74680;BME280;63211;48.548;2.704;2022-10-03T14:51:48;101743.00;;;19.29;65.65
74680;BME280;63211;48.548;2.704;2022-10-03T14:54:18;101733.13;;;19.28;65.93
74680;BME280;63211;48.548;2.704;2022-10-03T14:56:47;101734.81;;;19.29;65.75
74680;BME280;63211;48.548;2.704;2022-10-03T14:59:20;101732.28;;;19.28;65.20
74680;BME280;63211;48.548;2.704;2022-10-03T15:01:50;101716.75;;;19.28;65.60
74680;BME280;63211;48.548;2.704;2022-10-03T15:04:26;101725.56;;;19.30;65.48
74680;BME280;63211;48.548;2.704;2022-10-03T15:06:55;101728.94;;;19.32;65.42
74680;BME280;63211;48.548;2.704;2022-10-03T15:09:24;101719.66;;;19.33;65.45
74680;BME280;63211;48.548;2.704;2022-10-03T15:12:00;101723.47;;;19.32;65.32
74680;BME280;63211;48.548;2.704;2022-10-03T15:14:32;101721.78;;;19.31;65.46
74680;BME280;63211;48.548;2.704;2022-10-03T15:17:04;101719.91;;;19.32;65.56
74680;BME280;63211;48.548;2.704;2022-10-03T15:19:35;101720.75;;;19.32;65.61
74680;BME280;63211;48.548;2.704;2022-10-03T15:22:24;101715.50;;;19.31;65.46
74680;BME280;63211;48.548;2.704;2022-10-03T15:24:53;101707.28;;;19.24;66.00
74680;BME280;63211;48.548;2.704;2022-10-03T15:27:22;101705.59;;;19.36;65.39
74680;BME280;63211;48.548;2.704;2022-10-03T15:29:52;101697.63;;;19.41;65.23
74680;BME280;63211;48.548;2.704;2022-10-03T15:32:22;101703.09;;;19.41;65.27
74680;BME280;63211;48.548;2.704;2022-10-03T15:34:55;101705.81;;;19.41;65.41
74680;BME280;63211;48.548;2.704;2022-10-03T15:37:27;101698.91;;;19.45;65.39
74680;BME280;63211;48.548;2.704;2022-10-03T15:39:59;101693.03;;;19.48;65.05
74680;BME280;63211;48.548;2.704;2022-10-03T15:42:29;101693.03;;;19.48;65.10
74680;BME280;63211;48.548;2.704;2022-10-03T15:45:00;101688.63;;;19.47;65.03
74680;BME280;63211;48.548;2.704;2022-10-03T15:47:30;101693.66;;;19.44;65.30
74680;BME280;63211;48.548;2.704;2022-10-03T15:50:00;101691.34;;;19.47;65.40
74680;BME280;63211;48.548;2.704;2022-10-03T15:52:32;101688.81;;;19.46;65.40
74680;BME280;63211;48.548;2.704;2022-10-03T15:55:02;101677.69;;;19.47;65.67
74680;BME280;63211;48.548;2.704;2022-10-03T15:57:32;101682.78;;;19.50;65.19
74680;BME280;63211;48.548;2.704;2022-10-03T16:00:03;101673.75;;;19.50;65.07
74680;BME280;63211;48.548;2.704;2022-10-03T16:02:34;101677.72;;;19.54;65.12
74680;BME280;63211;48.548;2.704;2022-10-03T16:05:02;101676.22;;;19.45;65.71
74680;BME280;63211;48.548;2.704;2022-10-03T16:07:36;101675.22;;;19.52;65.41
74680;BME280;63211;48.548;2.704;2022-10-03T16:10:13;101671.44;;;19.53;65.75
74680;BME280;63211;48.548;2.704;2022-10-03T16:13:00;101672.47;;;19.59;65.30
74680;BME280;63211;48.548;2.704;2022-10-03T16:15:40;101673.53;;;19.65;65.52
74680;BME280;63211;48.548;2.704;2022-10-03T16:18:09;101675.19;;;19.66;65.40
74680;BME280;63211;48.548;2.704;2022-10-03T16:20:56;101669.94;;;19.71;65.20